sensor_id;sensor_type;location;lat;lon;timestamp;P1;durP1;ratioP1;P2;durP2;ratioP2
71902;SDS011;59778;50.310;18.780;2024-03-02T00:26:07;98.67;;;39.70;;
71902;SDS011;59778;50.310;18.780;2024-03-02T00:41:32;91.50;;;36.60;;
71902;SDS011;59778;50.310;18.780;2024-03-02T00:56:53;114.33;;;41.53;;
71902;SDS011;59778;50.310;18.780;2024-03-02T01:12:16;80.57;;;33.57;;
71902;SDS011;59778;50.310;18.780;2024-03-02T01:27:37;66.83;;;29.33;;
71902;SDS011;59778;50.310;18.780;2024-03-02T01:42:58;81.17;;;31.63;;
71902;SDS011;59778;50.310;18.780;2024-03-02T01:58:19;81.63;;;34.23;;
71902;SDS011;59778;50.310;18.780;2024-03-02T02:13:40;76.77;;;31.13;;
71902;SDS011;59778;50.310;18.780;2024-03-02T02:29:01;77.50;;;32.57;;
71902;SDS011;59778;50.310;18.780;2024-03-02T02:44:24;81.90;;;31.60;;
71902;SDS011;59778;50.310;18.780;2024-03-02T02:59:46;69.20;;;30.43;;
71902;SDS011;59778;50.310;18.780;2024-03-02T03:15:07;67.17;;;31.30;;
71902;SDS011;59778;50.310;18.780;2024-03-02T03:30:29;68.23;;;29.93;;
71902;SDS011;59778;50.310;18.780;2024-03-02T03:45:50;57.63;;;26.47;;
71902;SDS011;59778;50.310;18.780;2024-03-02T04:01:11;51.10;;;25.60;;
71902;SDS011;59778;50.310;18.780;2024-03-02T04:16:32;64.43;;;29.43;;
71902;SDS011;59778;50.310;18.780;2024-03-02T04:31:54;54.83;;;25.87;;
71902;SDS011;59778;50.310;18.780;2024-03-02T04:47:15;57.27;;;25.93;;
71902;SDS011;59778;50.310;18.780;2024-03-02T05:02:36;56.93;;;24.80;;
71902;SDS011;59778;50.310;18.780;2024-03-02T05:17:58;57.57;;;25.40;;
71902;SDS011;59778;50.310;18.780;2024-03-02T05:33:20;58.57;;;26.50;;
71902;SDS011;59778;50.310;18.780;2024-03-02T05:48:43;62.50;;;25.97;;
71902;SDS011;59778;50.310;18.780;2024-03-02T06:04:04;62.03;;;28.83;;
71902;SDS011;59778;50.310;18.780;2024-03-02T06:19:25;65.33;;;30.07;;
71902;SDS011;59778;50.310;18.780;2024-03-02T06:34:46;55.90;;;26.27;;
71902;SDS011;59778;50.310;18.780;2024-03-02T06:50:07;60.90;;;27.10;;
71902;SDS011;59778;50.310;18.780;2024-03-02T07:05:28;60.90;;;29.83;;
71902;SDS011;59778;50.310;18.780;2024-03-02T07:20:50;55.17;;;26.40;;
71902;SDS011;59778;50.310;18.780;2024-03-02T07:36:11;57.17;;;28.10;;
71902;SDS011;59778;50.310;18.780;2024-03-02T07:51:32;61.40;;;28.67;;
71902;SDS011;59778;50.310;18.780;2024-03-02T08:06:53;54.67;;;28.03;;
71902;SDS011;59778;50.310;18.780;2024-03-02T08:22:15;60.87;;;28.33;;
71902;SDS011;59778;50.310;18.780;2024-03-02T08:37:37;62.07;;;27.53;;
71902;SDS011;59778;50.310;18.780;2024-03-02T08:52:59;56.87;;;27.47;;
71902;SDS011;59778;50.310;18.780;2024-03-02T09:08:20;55.50;;;25.23;;
71902;SDS011;59778;50.310;18.780;2024-03-02T09:23:41;55.83;;;26.37;;
71902;SDS011;59778;50.310;18.780;2024-03-02T09:39:02;54.67;;;25.53;;
71902;SDS011;59778;50.310;18.780;2024-03-02T09:54:24;57.23;;;28.63;;
71902;SDS011;59778;50.310;18.780;2024-03-02T10:09:46;50.30;;;24.67;;
71902;SDS011;59778;50.310;18.780;2024-03-02T10:25:07;47.20;;;22.13;;
71902;SDS011;59778;50.310;18.780;2024-03-02T10:40:32;36.37;;;19.43;;
71902;SDS011;59778;50.310;18.780;2024-03-02T10:55:55;39.73;;;19.03;;
71902;SDS011;59778;50.310;18.780;2024-03-02T11:11:19;41.17;;;20.20;;
71902;SDS011;59778;50.310;18.780;2024-03-02T11:26:42;45.90;;;19.37;;
71902;SDS011;59778;50.310;18.780;2024-03-02T11:42:05;37.67;;;17.77;;
71902;SDS011;59778;50.310;18.780;2024-03-02T11:57:26;38.30;;;16.00;;
71902;SDS011;59778;50.310;18.780;2024-03-02T12:12:54;37.23;;;16.63;;
71902;SDS011;59778;50.310;18.780;2024-03-02T12:28:15;39.03;;;16.13;;
71902;SDS011;59778;50.310;18.780;2024-03-02T12:43:38;37.10;;;16.13;;
71902;SDS011;59778;50.310;18.780;2024-03-02T12:58:59;35.67;;;16.07;;
71902;SDS011;59778;50.310;18.780;2024-03-02T13:14:21;34.63;;;16.57;;
71902;SDS011;59778;50.310;18.780;2024-03-02T13:29:42;35.13;;;16.73;;
71902;SDS011;59778;50.310;18.780;2024-03-02T13:45:04;33.87;;;16.87;;
71902;SDS011;59778;50.310;18.780;2024-03-02T14:00:26;38.70;;;19.20;;
71902;SDS011;59778;50.310;18.780;2024-03-02T14:15:47;45.00;;;21.93;;
71902;SDS011;59778;50.310;18.780;2024-03-02T14:31:08;42.17;;;20.93;;
71902;SDS011;59778;50.310;18.780;2024-03-02T14:46:29;51.67;;;24.83;;
71902;SDS011;59778;50.310;18.780;2024-03-02T15:01:50;54.03;;;22.70;;
71902;SDS011;59778;50.310;18.780;2024-03-02T15:17:12;48.40;;;23.37;;
71902;SDS011;59778;50.310;18.780;2024-03-02T15:32:37;38.93;;;17.03;;
71902;SDS011;59778;50.310;18.780;2024-03-02T15:47:59;37.50;;;18.53;;
71902;SDS011;59778;50.310;18.780;2024-03-02T16:03:22;50.30;;;24.57;;
71902;SDS011;59778;50.310;18.780;2024-03-02T16:34:30;76.47;;;37.73;;
71902;SDS011;59778;50.310;18.780;2024-03-02T16:49:51;90.53;;;43.50;;
71902;SDS011;59778;50.310;18.780;2024-03-02T17:05:12;60.20;;;27.97;;
71902;SDS011;59778;50.310;18.780;2024-03-02T17:20:34;65.23;;;30.30;;
71902;SDS011;59778;50.310;18.780;2024-03-02T17:35:55;327.73;;;92.13;;
71902;SDS011;59778;50.310;18.780;2024-03-02T17:51:18;113.90;;;41.70;;
71902;SDS011;59778;50.310;18.780;2024-03-02T18:06:39;117.13;;;48.43;;
71902;SDS011;59778;50.310;18.780;2024-03-02T18:22:00;127.30;;;53.80;;
71902;SDS011;59778;50.310;18.780;2024-03-02T18:37:21;119.70;;;55.57;;
71902;SDS011;59778;50.310;18.780;2024-03-02T18:52:44;143.07;;;67.73;;
71902;SDS011;59778;50.310;18.780;2024-03-02T19:08:05;99.63;;;48.27;;
71902;SDS011;59778;50.310;18.780;2024-03-02T19:23:26;131.80;;;58.33;;
71902;SDS011;59778;50.310;18.780;2024-03-02T19:38:50;133.27;;;63.37;;
71902;SDS011;59778;50.310;18.780;2024-03-02T19:54:11;107.80;;;51.07;;
71902;SDS011;59778;50.310;18.780;2024-03-02T20:09:32;87.73;;;39.10;;
71902;SDS011;59778;50.310;18.780;2024-03-02T20:24:53;113.70;;;46.40;;
71902;SDS011;59778;50.310;18.780;2024-03-02T20:40:14;109.63;;;46.80;;
71902;SDS011;59778;50.310;18.780;2024-03-02T20:55:39;104.63;;;45.53;;
71902;SDS011;59778;50.310;18.780;2024-03-02T21:11:00;103.70;;;49.00;;
71902;SDS011;59778;50.310;18.780;2024-03-02T21:26:24;105.73;;;48.97;;
71902;SDS011;59778;50.310;18.780;2024-03-02T21:41:45;98.33;;;46.43;;
71902;SDS011;59778;50.310;18.780;2024-03-02T21:57:07;102.73;;;46.10;;
71902;SDS011;59778;50.310;18.780;2024-03-02T22:12:32;104.00;;;45.70;;
71902;SDS011;59778;50.310;18.780;2024-03-02T22:27:53;107.83;;;45.07;;
71902;SDS011;59778;50.310;18.780;2024-03-02T22:43:17;100.10;;;44.40;;
71902;SDS011;59778;50.310;18.780;2024-03-02T22:58:38;106.43;;;46.77;;
71902;SDS011;59778;50.310;18.780;2024-03-02T23:14:00;117.83;;;53.13;;
71902;SDS011;59778;50.310;18.780;2024-03-02T23:29:21;103.60;;;47.33;;
71902;SDS011;59778;50.310;18.780;2024-03-02T23:44:42;112.70;;;50.23;;
